Time;durP1;ratioP1;P1;durP2;ratioP2;P2;SDS_P1;SDS_P2;PMS_P1;PMS_P2;Temp;Humidity;BMP_temperature;BMP_pressure;BME280_temperature;BME280_humidity;BME280_pressure;Samples;Min_cycle;Max_cycle;Signal;HPM_P1;HPM_P2
2022/03/25 00:02:15;;;;;;;8.55;5.38;;;9.50;97.50;;;;;;5090891;28;20512;-73
2022/03/25 00:04:41;;;;;;;7.10;5.45;;;9.50;97.60;;;;;;5091759;28;20020;-73
2022/03/25 00:07:07;;;;;;;8.35;5.45;;;9.40;97.90;;;;;;5089938;28;20128;-72
2022/03/25 00:09:33;;;;;;;7.82;4.63;;;9.40;97.90;;;;;;5082042;28;20505;-73
2022/03/25 00:11:59;;;;;;;7.40;5.70;;;9.30;98.20;;;;;;5090446;28;20078;-72
2022/03/25 00:14:25;;;;;;;8.60;5.65;;;9.30;98.40;;;;;;5088380;28;20116;-73
2022/03/25 00:16:51;;;;;;;7.00;5.60;;;9.30;98.40;;;;;;5070706;28;20127;-73
2022/03/25 00:19:17;;;;;;;6.90;5.35;;;9.40;98.60;;;;;;5079079;28;20458;-73
2022/03/25 00:21:43;;;;;;;7.43;4.88;;;9.30;98.70;;;;;;5089803;28;20032;-72
2022/03/25 00:24:09;;;;;;;7.25;4.97;;;9.30;99.10;;;;;;5090048;28;20077;-73
2022/03/25 00:26:35;;;;;;;10.05;5.28;;;9.20;99.30;;;;;;5089293;28;20756;-73
2022/03/25 00:29:01;;;;;;;9.05;5.65;;;9.20;99.30;;;;;;5091881;28;20023;-73
2022/03/25 00:31:27;;;;;;;8.50;5.88;;;9.30;99.40;;;;;;5081289;28;20520;-73
2022/03/25 00:33:53;;;;;;;9.27;6.30;;;9.30;99.50;;;;;;5088521;28;20051;-73
2022/03/25 00:36:21;;;;;;;7.72;5.82;;;9.40;99.40;;;;;;5080925;28;20024;-72
2022/03/25 00:38:47;;;;;;;9.90;6.65;;;9.20;99.70;;;;;;5089993;28;20012;-73
2022/03/25 00:41:13;;;;;;;8.65;6.55;;;9.30;99.80;;;;;;5090261;28;20028;-72
2022/03/25 00:43:42;;;;;;;9.05;6.47;;;9.30;99.70;;;;;;5090761;28;20060;-73
2022/03/25 00:46:08;;;;;;;8.68;5.95;;;9.30;99.90;;;;;;5089427;28;20069;-72
2022/03/25 00:48:34;;;;;;;8.93;6.32;;;9.20;99.90;;;;;;5081010;28;20020;-73
2022/03/25 00:51:00;;;;;;;10.20;6.05;;;9.20;99.90;;;;;;5080084;28;20055;-73
2022/03/25 00:53:26;;;;;;;13.52;6.82;;;9.20;99.90;;;;;;5087882;28;20052;-72
2022/03/25 00:55:52;;;;;;;13.25;6.53;;;9.20;99.90;;;;;;5084841;28;20039;-73
2022/03/25 00:58:18;;;;;;;9.90;6.15;;;9.20;99.90;;;;;;5080821;28;20470;-72
2022/03/25 01:00:44;;;;;;;9.40;6.75;;;9.20;99.90;;;;;;5080155;28;20021;-73
2022/03/25 01:03:11;;;;;;;10.68;6.78;;;9.20;99.90;;;;;;5077620;28;20020;-72
2022/03/25 01:05:37;;;;;;;10.23;7.10;;;9.20;99.90;;;;;;5089259;28;20016;-73
2022/03/25 01:08:04;;;;;;;11.82;7.40;;;9.20;99.90;;;;;;5089137;28;20028;-72
2022/03/25 01:10:31;;;;;;;10.75;7.10;;;9.30;99.90;;;;;;5080668;28;20023;-73
2022/03/25 01:12:57;;;;;;;12.20;8.07;;;9.20;99.90;;;;;;5080812;28;20096;-72
2022/03/25 01:15:23;;;;;;;10.75;8.02;;;9.20;99.90;;;;;;5089149;28;20028;-73
2022/03/25 01:17:49;;;;;;;12.82;7.45;;;9.20;99.90;;;;;;5089550;28;20497;-73
2022/03/25 01:20:17;;;;;;;15.50;9.43;;;9.20;99.90;;;;;;5072343;28;20505;-73
2022/03/25 01:22:43;;;;;;;9.43;7.40;;;9.10;99.90;;;;;;5090652;28;20028;-73
2022/03/25 01:25:09;;;;;;;11.02;7.63;;;9.20;99.90;;;;;;5088933;28;20020;-73
2022/03/25 01:27:35;;;;;;;13.25;7.75;;;9.20;99.90;;;;;;5088928;28;20024;-73
2022/03/25 01:30:01;;;;;;;12.85;7.80;;;9.20;99.90;;;;;;5088895;28;20517;-72
2022/03/25 01:32:27;;;;;;;11.20;8.02;;;9.20;99.90;;;;;;5089193;28;20032;-73
2022/03/25 01:34:53;;;;;;;13.15;8.05;;;9.20;99.90;;;;;;5090891;28;20020;-73
2022/03/25 01:37:18;;;;;;;13.18;8.38;;;9.20;99.90;;;;;;5088339;28;20051;-73
2022/03/25 01:39:44;;;;;;;11.40;7.93;;;9.10;99.90;;;;;;5080290;28;20073;-73
2022/03/25 01:42:10;;;;;;;10.93;7.93;;;9.10;99.90;;;;;;5088839;28;20039;-73
2022/03/25 01:44:37;;;;;;;12.63;8.63;;;9.20;99.90;;;;;;5070947;28;20025;-73
2022/03/25 01:47:03;;;;;;;12.63;8.27;;;9.10;99.90;;;;;;5090816;28;20020;-73
2022/03/25 01:49:29;;;;;;;10.98;9.30;;;9.10;99.90;;;;;;5077505;28;20017;-73
2022/03/25 01:52:00;;;;;;;14.63;9.23;;;9.10;99.90;;;;;;5075983;28;20182;-73
2022/03/25 01:54:30;;;;;;;13.05;9.15;;;9.10;99.90;;;;;;5078837;28;20035;-73
2022/03/25 01:57:01;;;;;;;12.95;8.50;;;9.10;99.90;;;;;;5083325;28;20025;-73
2022/03/25 01:59:28;;;;;;;;;;;9.10;99.90;;;;;;5087519;28;20020;-73
2022/03/25 02:01:56;;;;;;;10.57;7.95;;;9.10;99.90;;;;;;5090502;28;19969;-73
2022/03/25 02:04:24;;;;;;;15.27;9.10;;;9.10;99.90;;;;;;5087040;28;20508;-72
2022/03/25 02:06:51;;;;;;;11.45;7.72;;;9.10;99.90;;;;;;5082528;28;20016;-73
2022/03/25 02:09:17;;;;;;;11.38;7.95;;;9.10;99.90;;;;;;5083343;28;20029;-72
2022/03/25 02:11:43;;;;;;;11.32;7.65;;;9.10;99.90;;;;;;5076476;28;20036;-73
2022/03/25 02:14:09;;;;;;;14.00;8.68;;;9.10;99.90;;;;;;5093891;28;20102;-73
2022/03/25 02:16:37;;;;;;;9.70;7.22;;;9.10;99.90;;;;;;5084633;28;20024;-72
2022/03/25 02:19:03;;;;;;;12.38;8.43;;;9.10;99.90;;;;;;5092472;28;20110;-72
2022/03/25 02:21:32;;;;;;;13.55;8.82;;;9.00;99.90;;;;;;5091104;28;20123;-72
2022/03/25 02:23:59;;;;;;;14.20;8.73;;;9.00;99.90;;;;;;5092580;28;20517;-73
2022/03/25 02:26:27;;;;;;;12.57;7.90;;;9.00;99.90;;;;;;5091885;28;20099;-73
2022/03/25 02:28:53;;;;;;;12.48;9.18;;;9.10;99.90;;;;;;5075675;28;20020;-73
2022/03/25 02:31:19;;;;;;;16.13;9.35;;;9.00;99.90;;;;;;5089940;28;20660;-73
2022/03/25 02:33:44;;;;;;;13.73;9.35;;;9.00;99.90;;;;;;5092158;28;20405;-73
2022/03/25 02:36:10;;;;;;;12.77;8.80;;;9.00;99.90;;;;;;5092439;28;20032;-73
2022/03/25 02:38:36;;;;;;;11.05;8.13;;;9.10;99.90;;;;;;5087533;28;20032;-73
2022/03/25 02:41:03;;;;;;;11.45;8.23;;;9.00;99.90;;;;;;5072206;28;20024;-73
2022/03/25 02:43:29;;;;;;;12.85;9.15;;;9.00;99.90;;;;;;5091190;28;20043;-73
2022/03/25 02:45:55;;;;;;;15.25;8.70;;;8.90;99.90;;;;;;5091819;28;20020;-73
2022/03/25 02:48:20;;;;;;;15.20;8.52;;;8.90;99.90;;;;;;5092042;28;20531;-72
2022/03/25 02:50:46;;;;;;;13.50;8.43;;;8.90;99.90;;;;;;5077464;28;20108;-73
2022/03/25 02:53:13;;;;;;;13.15;8.52;;;8.90;99.90;;;;;;5088857;28;20040;-73
2022/03/25 02:55:40;;;;;;;13.52;8.02;;;8.90;99.90;;;;;;5091426;28;20123;-72
2022/03/25 02:58:06;;;;;;;11.15;8.48;;;8.90;99.90;;;;;;5082984;28;20036;-72
2022/03/25 03:00:32;;;;;;;11.45;7.93;;;8.90;99.90;;;;;;5082512;28;20076;-72
2022/03/25 03:03:00;;;;;;;11.68;8.27;;;8.90;99.90;;;;;;5085665;28;20039;-72
2022/03/25 03:05:31;;;;;;;13.65;8.43;;;8.80;99.90;;;;;;5090141;28;20017;-72
2022/03/25 03:07:57;;;;;;;10.32;8.60;;;8.90;99.90;;;;;;5093150;28;20024;-72
2022/03/25 03:10:24;;;;;;;11.65;7.85;;;8.90;99.90;;;;;;5089235;28;20107;-72
2022/03/25 03:12:52;;;;;;;12.18;8.77;;;8.80;99.90;;;;;;5091600;28;20062;-72
2022/03/25 03:15:19;;;;;;;12.43;7.75;;;8.80;99.90;;;;;;5091113;28;20162;-73
2022/03/25 03:17:46;;;;;;;10.98;8.07;;;8.60;99.90;;;;;;5091533;28;20020;-72
2022/03/25 03:20:12;;;;;;;12.00;8.65;;;8.70;99.90;;;;;;5090232;28;20028;-72
2022/03/25 03:22:38;;;;;;;11.15;8.30;;;8.60;99.90;;;;;;5092412;28;20035;-72
2022/03/25 03:25:04;;;;;;;10.77;7.68;;;8.70;99.90;;;;;;5091128;28;20394;-72
2022/03/25 03:27:30;;;;;;;10.55;7.20;;;8.80;99.90;;;;;;5090738;28;20497;-72
2022/03/25 03:29:57;;;;;;;10.15;7.20;;;8.80;99.90;;;;;;5091214;28;20012;-72
2022/03/25 03:32:23;;;;;;;9.48;7.20;;;8.80;99.90;;;;;;5090314;28;20059;-72
2022/03/25 03:34:49;;;;;;;10.43;7.10;;;8.80;99.90;;;;;;5092838;28;20031;-72
2022/03/25 03:37:15;;;;;;;10.57;7.28;;;8.70;99.90;;;;;;5090437;28;20020;-73
2022/03/25 03:39:41;;;;;;;12.18;7.97;;;8.70;99.90;;;;;;5090457;28;20056;-72
2022/03/25 03:42:08;;;;;;;9.70;7.53;;;8.70;99.90;;;;;;5090359;28;20028;-72
2022/03/25 03:44:36;;;;;;;12.40;7.68;;;8.70;99.90;;;;;;5073260;28;20020;-73
2022/03/25 03:47:03;;;;;;;11.82;7.85;;;8.60;99.90;;;;;;5092611;28;20165;-72
2022/03/25 03:49:29;;;;;;;11.07;7.65;;;8.70;99.90;;;;;;5078323;28;20028;-72
2022/03/25 03:51:55;;;;;;;9.95;7.40;;;8.70;99.90;;;;;;5078328;28;20041;-72
2022/03/25 03:54:20;;;;;;;11.55;8.20;;;8.60;99.90;;;;;;5079621;28;20024;-72
2022/03/25 03:56:46;;;;;;;12.52;7.82;;;8.60;99.90;;;;;;5084815;28;20436;-72
2022/03/25 03:59:12;;;;;;;12.43;7.85;;;8.70;99.90;;;;;;5091155;28;20519;-72
2022/03/25 04:01:38;;;;;;;11.70;7.97;;;8.70;99.90;;;;;;5075592;28;20035;-72
2022/03/25 04:04:03;;;;;;;13.45;9.55;;;8.70;99.90;;;;;;5086163;28;20035;-72
2022/03/25 04:06:29;;;;;;;11.50;8.80;;;8.70;99.90;;;;;;5088345;28;20020;-72
2022/03/25 04:08:56;;;;;;;11.85;8.15;;;8.60;99.90;;;;;;5090018;28;20546;-72
2022/03/25 04:11:21;;;;;;;14.05;8.93;;;8.60;99.90;;;;;;5088850;28;20050;-73
2022/03/25 04:13:47;;;;;;;10.77;8.20;;;8.60;99.90;;;;;;5085003;28;20024;-72
2022/03/25 04:16:13;;;;;;;12.23;8.45;;;8.50;99.90;;;;;;5090196;28;20039;-73
2022/03/25 04:18:39;;;;;;;11.30;8.07;;;8.50;99.90;;;;;;5089807;28;20043;-72
2022/03/25 04:21:05;;;;;;;12.20;7.97;;;8.60;99.90;;;;;;5089262;28;20027;-73
2022/03/25 04:23:31;;;;;;;12.43;7.47;;;8.50;99.90;;;;;;5087426;28;20060;-73
2022/03/25 04:25:57;;;;;;;9.32;7.38;;;8.60;99.90;;;;;;5071542;28;20029;-73
2022/03/25 04:28:23;;;;;;;11.93;7.78;;;8.60;99.90;;;;;;5088446;28;20028;-73
2022/03/25 04:30:49;;;;;;;11.15;7.72;;;8.60;99.90;;;;;;5080962;28;20059;-73
2022/03/25 04:33:14;;;;;;;10.82;7.93;;;8.60;99.90;;;;;;5088763;28;20463;-73
2022/03/25 04:35:40;;;;;;;11.13;7.82;;;8.60;99.90;;;;;;5088788;28;20036;-73
2022/03/25 04:38:06;;;;;;;13.63;8.15;;;8.60;99.90;;;;;;5091548;28;20065;-73
2022/03/25 04:40:33;;;;;;;11.80;8.30;;;8.60;99.90;;;;;;5080804;28;20024;-72
2022/03/25 04:43:00;;;;;;;12.02;7.90;;;8.70;99.90;;;;;;5089970;28;20501;-73
2022/03/25 04:45:27;;;;;;;13.43;7.97;;;8.60;99.90;;;;;;5088654;28;20039;-72
2022/03/25 04:47:53;;;;;;;11.68;7.75;;;8.60;99.90;;;;;;5089753;28;20107;-73
2022/03/25 04:50:19;;;;;;;11.13;7.90;;;8.70;99.90;;;;;;5080288;28;20108;-72
2022/03/25 04:52:45;;;;;;;10.13;7.70;;;8.60;99.90;;;;;;5073198;28;20059;-73
2022/03/25 04:55:11;;;;;;;9.13;7.05;;;8.60;99.90;;;;;;5077763;28;20028;-72
2022/03/25 04:57:38;;;;;;;11.40;7.63;;;8.60;99.90;;;;;;5083744;28;20024;-73
2022/03/25 05:00:04;;;;;;;10.63;7.25;;;8.50;99.90;;;;;;5089454;28;20047;-73
2022/03/25 05:02:30;;;;;;;9.13;7.68;;;8.50;99.90;;;;;;5089577;28;20040;-73
2022/03/25 05:04:56;;;;;;;11.10;8.65;;;8.60;99.90;;;;;;5091216;28;20483;-73
2022/03/25 05:07:22;;;;;;;11.20;7.10;;;8.60;99.90;;;;;;5083271;28;20480;-73
2022/03/25 05:09:47;;;;;;;10.60;6.90;;;8.60;99.90;;;;;;5089140;28;20564;-73
2022/03/25 05:12:14;;;;;;;10.57;7.68;;;8.50;99.90;;;;;;5087997;28;20028;-73
2022/03/25 05:14:40;;;;;;;8.65;6.88;;;8.60;99.90;;;;;;5089151;28;20080;-73
2022/03/25 05:17:06;;;;;;;10.07;7.13;;;8.60;99.90;;;;;;5091063;28;20024;-73
2022/03/25 05:19:32;;;;;;;11.98;7.40;;;8.50;99.90;;;;;;5089285;28;20039;-73
2022/03/25 05:21:58;;;;;;;9.05;6.32;;;8.60;99.90;;;;;;5088696;28;20461;-73
2022/03/25 05:24:25;;;;;;;9.57;7.30;;;8.60;99.90;;;;;;5087430;28;20497;-73
2022/03/25 05:26:51;;;;;;;10.93;7.88;;;8.70;99.90;;;;;;5088698;28;20028;-73
2022/03/25 05:29:17;;;;;;;9.60;7.07;;;8.60;99.90;;;;;;5089321;28;20074;-72
2022/03/25 05:31:42;;;;;;;11.70;8.52;;;8.60;99.90;;;;;;5076744;28;20103;-73
2022/03/25 05:34:08;;;;;;;11.07;8.20;;;8.60;99.90;;;;;;5085379;28;20040;-72
2022/03/25 05:36:34;;;;;;;13.68;8.38;;;8.60;99.90;;;;;;5088171;28;20393;-73
2022/03/25 05:39:01;;;;;;;11.48;8.07;;;8.60;99.90;;;;;;5087383;28;20036;-73
2022/03/25 05:41:28;;;;;;;12.02;8.20;;;8.60;99.90;;;;;;5070244;28;20586;-73
2022/03/25 05:43:54;;;;;;;9.98;8.20;;;8.60;99.90;;;;;;5093263;28;20024;-73
2022/03/25 05:46:20;;;;;;;10.98;7.45;;;8.60;99.90;;;;;;5083298;28;20058;-73
2022/03/25 05:48:46;;;;;;;13.07;8.30;;;8.60;99.90;;;;;;5092684;28;20020;-73
2022/03/25 05:51:12;;;;;;;13.38;8.82;;;8.60;99.90;;;;;;5092499;28;20027;-73
2022/03/25 05:53:39;;;;;;;10.38;8.07;;;8.60;99.90;;;;;;5093115;28;20082;-72
2022/03/25 05:56:05;;;;;;;14.52;9.82;;;8.60;99.90;;;;;;5094637;28;20070;-73
2022/03/25 05:58:35;;;;;;;13.90;8.30;;;8.70;99.90;;;;;;5092469;28;20850;-73
2022/03/25 06:01:05;;;;;;;12.48;8.55;;;8.70;99.90;;;;;;5092287;28;20115;-73
2022/03/25 06:03:32;;;;;;;11.90;8.27;;;8.70;99.90;;;;;;5091511;28;20497;-73
2022/03/25 06:05:59;;;;;;;15.27;9.27;;;8.80;99.90;;;;;;5092858;28;20012;-73
2022/03/25 06:08:25;;;;;;;12.93;8.13;;;8.80;99.90;;;;;;5092571;28;20020;-73
2022/03/25 06:10:51;;;;;;;10.75;8.13;;;8.80;99.90;;;;;;5094369;28;20035;-73
2022/03/25 06:13:18;;;;;;;11.95;8.40;;;8.80;99.90;;;;;;5090963;28;20505;-73
2022/03/25 06:15:44;;;;;;;11.05;8.20;;;8.80;99.90;;;;;;5092405;28;20563;-73
2022/03/25 06:18:10;;;;;;;13.13;8.90;;;8.90;99.90;;;;;;5092396;28;20036;-73
2022/03/25 06:20:35;;;;;;;12.95;9.07;;;9.00;99.90;;;;;;5091755;28;20039;-73
2022/03/25 06:23:01;;;;;;;12.98;9.50;;;9.00;99.90;;;;;;5094173;28;20024;-73
2022/03/25 06:25:27;;;;;;;12.88;8.48;;;9.00;99.90;;;;;;5089868;28;20024;-73
2022/03/25 06:27:55;;;;;;;11.93;8.35;;;9.00;99.90;;;;;;5092210;28;20016;-73
2022/03/25 06:30:24;;;;;;;13.05;9.07;;;9.10;99.90;;;;;;5091052;28;20532;-73
2022/03/25 06:32:50;;;;;;;13.57;9.38;;;9.10;99.90;;;;;;5087863;28;20034;-73
2022/03/25 06:35:17;;;;;;;12.50;8.50;;;9.10;99.90;;;;;;5089675;28;20024;-73
2022/03/25 06:37:44;;;;;;;12.18;8.60;;;9.20;99.90;;;;;;5093415;28;20047;-73
2022/03/25 06:40:10;;;;;;;11.13;7.90;;;9.20;99.90;;;;;;5083311;28;20489;-73
2022/03/25 06:42:39;;;;;;;16.00;8.85;;;9.20;99.90;;;;;;5092203;28;20044;-73
2022/03/25 06:45:07;;;;;;;11.25;7.40;;;9.30;99.90;;;;;;5090391;28;20024;-72
2022/03/25 06:47:34;;;;;;;10.10;7.57;;;9.30;99.90;;;;;;5091808;28;20024;-72
2022/03/25 06:50:00;;;;;;;11.27;7.60;;;9.40;99.90;;;;;;5085398;28;20016;-73
2022/03/25 06:52:26;;;;;;;10.32;7.35;;;9.40;99.90;;;;;;5082107;28;20063;-73
2022/03/25 06:54:52;;;;;;;11.77;8.18;;;9.40;99.90;;;;;;5091652;28;20046;-73
2022/03/25 06:57:18;;;;;;;14.73;8.43;;;9.40;99.90;;;;;;5090377;28;20119;-73
2022/03/25 06:59:44;;;;;;;10.20;7.95;;;9.40;99.90;;;;;;5087337;28;20464;-72
2022/03/25 07:02:11;;;;;;;12.00;8.60;;;9.50;99.90;;;;;;5088848;28;20082;-73
2022/03/25 07:04:37;;;;;;;14.32;8.70;;;9.50;99.90;;;;;;5092839;28;20031;-74
2022/03/25 07:07:05;;;;;;;12.40;8.50;;;9.50;99.90;;;;;;5090718;28;20039;-73
2022/03/25 07:09:32;;;;;;;11.93;8.02;;;9.60;99.90;;;;;;5091021;28;20024;-73
2022/03/25 07:11:59;;;;;;;11.90;9.00;;;9.60;99.90;;;;;;5087169;28;20032;-73
2022/03/25 07:14:25;;;;;;;12.18;9.05;;;9.70;99.90;;;;;;5089569;28;20024;-74
2022/03/25 07:16:51;;;;;;;11.05;8.15;;;9.70;99.90;;;;;;5093345;28;20051;-73
2022/03/25 07:19:17;;;;;;;10.70;7.22;;;9.80;99.90;;;;;;5091343;28;20059;-73
2022/03/25 07:21:43;;;;;;;11.70;8.23;;;9.80;99.90;;;;;;5090684;28;20070;-73
2022/03/25 07:24:09;;;;;;;12.43;8.65;;;9.90;99.90;;;;;;5083440;28;20021;-73
2022/03/25 07:26:37;;;;;;;13.75;8.82;;;9.90;99.90;;;;;;5087579;28;20024;-73
2022/03/25 07:29:03;;;;;;;12.55;8.80;;;10.00;99.90;;;;;;5088147;28;20028;-73
2022/03/25 07:31:29;;;;;;;11.73;8.95;;;10.10;99.90;;;;;;5090280;28;20036;-73
2022/03/25 07:34:01;;;;;;;13.52;8.40;;;10.20;99.90;;;;;;5085231;28;20551;-73
2022/03/25 07:36:26;;;;;;;11.07;8.52;;;10.20;99.90;;;;;;5090445;28;20077;-73
2022/03/25 07:38:52;;;;;;;11.48;8.13;;;10.40;99.90;;;;;;5090615;28;20427;-73
2022/03/25 07:41:19;;;;;;;16.02;8.52;;;10.50;99.90;;;;;;5082722;28;20552;-73
2022/03/25 07:43:45;;;;;;;13.32;8.30;;;10.70;99.90;;;;;;5080697;28;20023;-73
2022/03/25 07:46:11;;;;;;;11.45;8.75;;;10.80;99.90;;;;;;5080845;28;20056;-73
2022/03/25 07:48:37;;;;;;;12.43;8.48;;;10.80;99.90;;;;;;5080121;28;20027;-73
2022/03/25 07:51:03;;;;;;;11.52;8.05;;;10.90;99.90;;;;;;5086710;28;20408;-73
2022/03/25 07:53:31;;;;;;;17.45;9.25;;;11.10;99.90;;;;;;5088074;28;20044;-74
2022/03/25 07:55:57;;;;;;;13.25;8.35;;;11.00;99.90;;;;;;5079366;28;20111;-74
2022/03/25 07:58:23;;;;;;;16.05;9.05;;;11.20;99.90;;;;;;5087049;28;20608;-74
2022/03/25 08:00:50;;;;;;;15.27;9.23;;;11.60;99.90;;;;;;5089939;28;20472;-74
2022/03/25 08:03:18;;;;;;;11.93;8.68;;;11.90;99.90;;;;;;5081546;28;20024;-75
2022/03/25 08:05:44;;;;;;;12.40;8.88;;;12.20;99.90;;;;;;5085767;28;20044;-74
2022/03/25 08:08:10;;;;;;;10.65;8.32;;;12.20;99.90;;;;;;5087491;28;20016;-74
2022/03/25 08:10:38;;;;;;;14.23;9.75;;;12.10;99.90;;;;;;5067938;28;20120;-74
2022/03/25 08:13:05;;;;;;;11.50;7.75;;;12.20;99.90;;;;;;5068468;28;20029;-74
2022/03/25 08:15:32;;;;;;;15.00;9.18;;;12.70;99.90;;;;;;5082013;28;20136;-75
2022/03/25 08:18:03;;;;;;;13.15;9.20;;;12.40;99.90;;;;;;5070258;28;20024;-76
2022/03/25 08:20:39;;;;;;;12.55;8.77;;;12.40;99.90;;;;;;5082787;28;23086;-76
2022/03/25 08:23:12;;;;;;;10.35;7.75;;;12.60;99.90;;;;;;5073616;28;20020;-73
2022/03/25 08:28:26;;;;;;;12.00;8.60;;;12.80;99.90;;;;;;5081620;28;20490;-75
2022/03/25 08:30:52;;;;;;;12.63;8.05;;;12.60;99.90;;;;;;5067337;28;20044;-75
2022/03/25 08:33:19;;;;;;;10.85;8.07;;;12.70;99.90;;;;;;5074920;28;20024;-75
2022/03/25 08:35:45;;;;;;;13.15;8.25;;;12.70;99.90;;;;;;5072107;28;20529;-74
2022/03/25 08:38:12;;;;;;;11.50;8.50;;;13.10;99.90;;;;;;5069967;28;20037;-74
2022/03/25 08:40:39;;;;;;;9.07;7.30;;;13.30;99.90;;;;;;5070614;28;20413;-74
2022/03/25 08:43:05;;;;;;;10.57;8.20;;;14.00;99.90;;;;;;5072473;28;20095;-75
2022/03/25 08:45:32;;;;;;;12.85;8.57;;;13.80;99.90;;;;;;5091557;28;20023;-75
2022/03/25 08:47:58;;;;;;;10.48;8.20;;;14.10;99.90;;;;;;5089169;28;20028;-74
2022/03/25 08:50:24;;;;;;;9.30;7.80;;;13.90;99.90;;;;;;5085437;28;20030;-75
2022/03/25 08:52:52;;;;;;;11.45;8.90;;;14.20;99.90;;;;;;5076010;28;20052;-74
2022/03/25 08:55:19;;;;;;;11.60;7.70;;;13.80;99.80;;;;;;5072604;28;20024;-75
2022/03/25 08:57:46;;;;;;;11.18;8.10;;;14.80;99.90;;;;;;5076530;28;20012;-74
2022/03/25 09:00:15;;;;;;;8.90;7.10;;;14.80;99.20;;;;;;5069197;28;20027;-75
2022/03/25 09:02:43;;;;;;;9.98;7.68;;;14.10;99.50;;;;;;5072595;28;20059;-74
2022/03/25 09:05:10;;;;;;;11.63;7.53;;;13.70;99.90;;;;;;5079940;28;20024;-74
2022/03/25 09:07:37;;;;;;;9.63;7.20;;;14.00;99.90;;;;;;5089090;28;20024;-74
2022/03/25 09:10:07;;;;;;;10.25;8.05;;;13.40;99.90;;;;;;5086395;28;20056;-74
2022/03/25 09:12:34;;;;;;;12.90;9.05;;;13.20;99.90;;;;;;5075077;28;20023;-77
2022/03/25 09:15:00;;;;;;;10.45;8.35;;;13.20;99.90;;;;;;5088551;28;20028;-76
2022/03/25 09:17:26;;;;;;;12.15;7.40;;;13.30;99.90;;;;;;5074643;28;20020;-75
2022/03/25 09:19:52;;;;;;;9.43;7.55;;;13.40;99.90;;;;;;5069996;28;20111;-75
2022/03/25 09:22:18;;;;;;;10.75;7.47;;;13.50;99.90;;;;;;5078328;28;20027;-76
2022/03/25 09:24:44;;;;;;;9.65;7.43;;;13.90;99.90;;;;;;5089490;28;20077;-74
2022/03/25 09:27:10;;;;;;;9.15;7.22;;;14.10;99.90;;;;;;5090156;28;20024;-76
2022/03/25 09:29:36;;;;;;;8.88;7.20;;;13.70;99.90;;;;;;5089005;28;20012;-74
2022/03/25 09:32:02;;;;;;;9.52;7.53;;;13.50;99.90;;;;;;5073476;28;20039;-76
2022/03/25 09:37:12;;;;;;;9.57;7.40;;;13.80;99.90;;;;;;5088968;28;20106;-73
2022/03/25 09:39:38;;;;;;;11.40;7.32;;;13.60;99.90;;;;;;5091172;28;20027;-77
2022/03/25 09:42:05;;;;;;;12.18;7.50;;;13.60;99.90;;;;;;5071281;28;20032;-75
2022/03/25 09:44:32;;;;;;;9.57;7.13;;;13.60;99.90;;;;;;5083624;28;20066;-76
2022/03/25 09:46:58;;;;;;;10.63;6.97;;;13.60;99.90;;;;;;5084961;28;20028;-77
2022/03/25 09:49:23;;;;;;;9.85;7.00;;;13.50;99.90;;;;;;5064462;28;20036;-76
2022/03/25 09:51:49;;;;;;;10.05;6.95;;;13.70;99.90;;;;;;5074726;28;20505;-78
2022/03/25 09:54:16;;;;;;;12.32;7.57;;;13.70;99.70;;;;;;5077499;28;20043;-76
2022/03/25 09:56:42;;;;;;;8.85;6.93;;;13.70;99.90;;;;;;5075986;28;20062;-75
2022/03/25 09:59:08;;;;;;;11.30;7.45;;;13.70;99.90;;;;;;5077450;28;20035;-76
2022/03/25 10:01:35;;;;;;;11.98;7.65;;;13.60;99.90;;;;;;5077003;28;20013;-76
2022/03/25 10:04:01;;;;;;;9.20;6.72;;;13.90;99.90;;;;;;5072713;28;20814;-75
2022/03/25 10:06:27;;;;;;;8.90;7.00;;;13.90;99.50;;;;;;5064672;28;20032;-76
2022/03/25 10:09:02;;;;;;;12.38;7.40;;;14.30;99.40;;;;;;5069459;28;20533;-78
2022/03/25 10:11:32;;;;;;;9.27;6.85;;;14.40;99.40;;;;;;5086849;28;20110;-77
2022/03/25 10:14:14;;;;;;;10.07;7.38;;;14.70;99.60;;;;;;5082952;28;20016;-75
2022/03/25 10:16:41;;;;;;;9.02;6.72;;;14.30;98.50;;;;;;5088330;28;20114;-75
2022/03/25 10:19:09;;;;;;;7.47;6.65;;;14.40;98.70;;;;;;5087224;28;20043;-75
2022/03/25 10:21:56;;;;;;;8.40;7.07;;;14.30;98.70;;;;;;5080170;28;20569;-75
2022/03/25 10:24:48;;;;;;;8.88;6.82;;;14.80;98.40;;;;;;5083805;28;20035;-76
2022/03/25 10:27:19;;;;;;;11.77;6.93;;;14.90;97.80;;;;;;5079301;28;20044;-75
2022/03/25 10:29:46;;;;;;;7.45;6.65;;;15.00;98.30;;;;;;5088390;28;20061;-75
2022/03/25 10:32:14;;;;;;;10.50;7.22;;;15.20;97.60;;;;;;5083665;28;20109;-75
2022/03/25 10:34:42;;;;;;;7.75;6.07;;;15.00;97.20;;;;;;5086953;28;20032;-75
2022/03/25 10:37:11;;;;;;;8.85;6.57;;;15.40;97.90;;;;;;5087111;28;20055;-75
2022/03/25 10:39:38;;;;;;;7.40;5.80;;;15.20;97.40;;;;;;5089879;28;20032;-76
2022/03/25 10:42:06;;;;;;;7.88;5.95;;;15.20;97.40;;;;;;5085787;28;20028;-75
2022/03/25 10:44:43;;;;;;;9.55;6.55;;;15.40;97.50;;;;;;5091895;28;20024;-76
2022/03/25 10:47:15;;;;;;;8.25;5.95;;;15.20;97.90;;;;;;5086602;28;20016;-76
2022/03/25 10:49:43;;;;;;;10.25;6.40;;;15.50;96.70;;;;;;5089277;28;20025;-75
2022/03/25 10:52:32;;;;;;;7.15;5.90;;;15.40;96.60;;;;;;5090147;28;20055;-76
2022/03/25 10:55:23;;;;;;;13.48;6.75;;;15.40;97.30;;;;;;5089949;28;20441;-76
2022/03/25 10:57:52;;;;;;;7.95;6.20;;;15.40;96.90;;;;;;5086807;28;20036;-76
2022/03/25 11:00:18;;;;;;;10.32;7.10;;;15.50;96.10;;;;;;5073953;28;20036;-76
2022/03/25 11:02:45;;;;;;;7.65;6.30;;;15.70;96.40;;;;;;5082147;28;20366;-76
2022/03/25 11:05:13;;;;;;;9.43;6.95;;;16.00;96.80;;;;;;5082148;28;20039;-75
2022/03/25 11:07:42;;;;;;;9.25;6.63;;;15.70;96.40;;;;;;5077312;28;20085;-75
2022/03/25 11:10:09;;;;;;;8.10;6.75;;;15.50;95.90;;;;;;5087385;28;20021;-76
2022/03/25 11:12:34;;;;;;;8.23;6.32;;;15.30;96.20;;;;;;5080116;28;20028;-75
2022/03/25 11:15:01;;;;;;;7.68;6.32;;;15.70;96.70;;;;;;5083716;28;20478;-75
2022/03/25 11:17:27;;;;;;;7.45;6.03;;;15.50;95.70;;;;;;5084112;28;20055;-75
2022/03/25 11:19:55;;;;;;;8.10;6.03;;;15.50;95.70;;;;;;5091036;28;20089;-75
2022/03/25 11:22:24;;;;;;;9.60;7.22;;;15.80;95.40;;;;;;5090350;28;20024;-75
2022/03/25 11:24:59;;;;;;;8.57;5.78;;;15.60;96.60;;;;;;5086666;28;20027;-75
2022/03/25 11:27:32;;;;;;;8.15;6.35;;;15.70;96.30;;;;;;5091186;28;20024;-76
2022/03/25 11:30:03;;;;;;;12.60;6.70;;;15.50;95.80;;;;;;5088167;28;20031;-76
2022/03/25 11:32:29;;;;;;;10.55;6.65;;;15.50;96.20;;;;;;5085353;28;20032;-76
2022/03/25 11:34:55;;;;;;;7.88;6.35;;;15.60;95.80;;;;;;5090499;28;20086;-76
2022/03/25 11:37:29;;;;;;;8.73;6.60;;;15.40;95.10;;;;;;5078378;28;20494;-76
2022/03/25 11:40:12;;;;;;;8.82;5.88;;;15.30;96.80;;;;;;5089584;28;20493;-76
2022/03/25 11:42:49;;;;;;;6.85;5.32;;;15.50;95.60;;;;;;5076722;28;20043;-76
2022/03/25 11:45:21;;;;;;;10.05;6.50;;;15.50;95.00;;;;;;5085019;28;20021;-76
2022/03/25 11:48:04;;;;;;;9.40;6.75;;;15.50;95.10;;;;;;5088905;28;20024;-79
2022/03/25 11:50:43;;;;;;;9.63;6.88;;;15.60;95.00;;;;;;5084066;28;20524;-77
2022/03/25 11:53:11;;;;;;;9.57;6.20;;;15.50;94.90;;;;;;5084507;28;20575;-75
2022/03/25 11:56:01;;;;;;;9.98;5.97;;;15.60;94.90;;;;;;5090357;28;20154;-76
2022/03/25 11:58:37;;;;;;;11.20;6.20;;;15.70;94.10;;;;;;5074775;28;20033;-77
2022/03/25 12:01:17;;;;;;;8.18;6.57;;;15.70;93.20;;;;;;5089243;28;20032;-75
2022/03/25 12:03:52;;;;;;;9.95;6.22;;;15.70;93.00;;;;;;5091257;28;20016;-75
2022/03/25 12:06:21;;;;;;;8.63;5.55;;;15.80;93.40;;;;;;5084822;28;20049;-75
2022/03/25 12:09:13;;;;;;;7.53;6.07;;;15.80;92.90;;;;;;5087385;28;20046;-75
2022/03/25 12:11:50;;;;;;;9.00;6.10;;;16.00;92.30;;;;;;5081729;28;20099;-75
2022/03/25 12:14:31;;;;;;;8.18;6.13;;;16.20;92.70;;;;;;5079884;28;20059;-74
2022/03/25 12:16:57;;;;;;;7.78;5.97;;;16.20;92.40;;;;;;5081532;28;20028;-75
2022/03/25 12:19:26;;;;;;;8.27;6.28;;;16.30;92.90;;;;;;5075932;28;20039;-75
2022/03/25 12:22:25;;;;;;;9.73;5.63;;;16.10;91.50;;;;;;5078033;28;20028;-75
2022/03/25 12:24:53;;;;;;;6.63;5.50;;;16.20;91.80;;;;;;5072998;28;20036;-75
2022/03/25 12:27:20;;;;;;;7.43;5.35;;;16.20;91.70;;;;;;5073459;28;20494;-75
2022/03/25 12:29:54;;;;;;;8.70;5.82;;;16.20;91.00;;;;;;5076007;28;20024;-75
2022/03/25 12:32:25;;;;;;;9.82;5.43;;;16.40;91.30;;;;;;5068509;28;20025;-75
2022/03/25 12:35:08;;;;;;;11.60;6.55;;;16.50;91.80;;;;;;5078417;28;20028;-75
2022/03/25 12:37:34;;;;;;;9.60;4.93;;;16.80;91.70;;;;;;5086584;28;20034;-75
2022/03/25 12:40:20;;;;;;;7.65;5.53;;;17.00;89.90;;;;;;5071001;28;20422;-75
2022/03/25 12:42:59;;;;;;;6.43;5.25;;;17.20;86.50;;;;;;5078831;28;20029;-75
2022/03/25 12:45:40;;;;;;;7.70;4.40;;;17.30;83.90;;;;;;5079204;28;20035;-74
2022/03/25 12:48:11;;;;;;;5.63;4.63;;;17.10;82.60;;;;;;5089636;28;20028;-75
2022/03/25 12:50:44;;;;;;;7.38;4.78;;;17.20;87.20;;;;;;5087151;28;20867;-74
2022/03/25 12:53:10;;;;;;;5.47;4.28;;;17.50;83.80;;;;;;5083142;28;20040;-74
2022/03/25 12:55:36;;;;;;;6.68;4.28;;;17.60;81.70;;;;;;5076823;28;20065;-74